Time,TemperatureF,DewpointF,PressureIn,WindDirection,WindDirectionDegrees,WindSpeedMPH,WindSpeedGustMPH,Humidity,HourlyPrecipIn,Conditions,Clouds,dailyrainin,SoftwareType,DateUTC
2013-05-09 00:04:00,52.2,49.0,30.18,NNW,335,0.0,1.0,90,0.00,,,0.00,weatherlink.com 1.10,2013-05-09 07:04:00,
2013-05-09 00:19:00,52.4,50.0,30.18,ESE,105,0.0,2.0,91,0.00,,,0.00,weatherlink.com 1.10,2013-05-09 07:19:00,
2013-05-09 00:34:00,52.1,50.0,30.18,ESE,109,0.0,2.0,91,0.00,,,0.00,weatherlink.com 1.10,2013-05-09 07:34:00,
2013-05-09 00:49:00,51.9,49.0,30.17,East,82,0.0,1.0,91,0.00,,,0.00,weatherlink.com 1.10,2013-05-09 07:49:00,
2013-05-09 01:04:00,51.8,49.0,30.17,ESE,112,0.0,2.0,91,0.00,,,0.00,weatherlink.com 1.10,2013-05-09 08:04:00,
2013-05-09 01:19:00,51.7,49.0,30.18,NNE,24,0.0,2.0,91,0.00,,,0.00,weatherlink.com 1.10,2013-05-09 08:19:00,
2013-05-09 01:34:00,51.7,49.0,30.18,ENE,77,0.0,0.0,91,0.00,,,0.00,weatherlink.com 1.10,2013-05-09 08:34:00,
2013-05-09 01:49:00,51.7,49.0,30.17,ENE,78,0.0,0.0,91,0.00,,,0.00,weatherlink.com 1.10,2013-05-09 08:49:00,
2013-05-09 02:04:00,51.7,49.0,30.17,NE,56,0.0,3.0,91,0.00,,,0.00,weatherlink.com 1.10,2013-05-09 09:04:00,
2013-05-09 02:19:00,51.7,49.0,30.18,NNE,19,0.0,2.0,91,0.00,,,0.00,weatherlink.com 1.10,2013-05-09 09:19:00,
2013-05-09 02:34:00,51.7,49.0,30.18,NNE,30,0.0,0.0,91,0.00,,,0.00,weatherlink.com 1.10,2013-05-09 09:34:00,
2013-05-09 02:49:00,51.6,49.0,30.18,West,267,2.0,3.0,91,0.00,,,0.00,weatherlink.com 1.10,2013-05-09 09:49:00,
2013-05-09 03:04:00,51.5,49.0,30.18,ESE,110,0.0,2.0,91,0.00,,,0.00,weatherlink.com 1.10,2013-05-09 10:04:00,
2013-05-09 03:19:00,51.6,49.0,30.18,ENE,61,0.0,1.0,92,0.00,,,0.00,weatherlink.com 1.10,2013-05-09 10:19:00,
2013-05-09 03:34:00,51.6,49.0,30.18,SW,226,0.0,1.0,92,0.00,,,0.00,weatherlink.com 1.10,2013-05-09 10:34:00,
2013-05-09 03:49:00,51.5,49.0,30.18,ENE,68,0.0,1.0,92,0.00,,,0.00,weatherlink.com 1.10,2013-05-09 10:49:00,
2013-05-09 04:04:00,51.5,49.0,30.17,ENE,68,0.0,1.0,92,0.00,,,0.00,weatherlink.com 1.10,2013-05-09 11:04:00,
2013-05-09 04:19:00,51.5,49.0,30.18,ENE,70,0.0,1.0,92,0.00,,,0.00,weatherlink.com 1.10,2013-05-09 11:19:00,
2013-05-09 04:34:00,51.3,49.0,30.17,ENE,70,0.0,0.0,92,0.00,,,0.00,weatherlink.com 1.10,2013-05-09 11:34:00,
2013-05-09 04:49:00,51.3,49.0,30.17,ENE,70,0.0,0.0,92,0.00,,,0.00,weatherlink.com 1.10,2013-05-09 11:49:00,
2013-05-09 05:04:00,51.3,49.0,30.17,ENE,70,0.0,0.0,92,0.00,,,0.00,weatherlink.com 1.10,2013-05-09 12:04:00,
2013-05-09 05:19:00,51.2,49.0,30.17,NE,52,0.0,4.0,92,0.00,,,0.00,weatherlink.com 1.10,2013-05-09 12:19:00,
2013-05-09 05:34:00,51.2,49.0,30.17,East,79,0.0,1.0,92,0.00,,,0.00,weatherlink.com 1.10,2013-05-09 12:34:00,
2013-05-09 05:49:00,51.2,49.0,30.17,East,101,1.0,3.0,91,0.00,,,0.00,weatherlink.com 1.10,2013-05-09 12:49:00,
2013-05-09 06:04:00,51.2,49.0,30.17,ENE,58,0.0,4.0,91,0.00,,,0.00,weatherlink.com 1.10,2013-05-09 13:04:00,
2013-05-09 06:19:00,51.0,49.0,30.18,ENE,74,0.0,3.0,91,0.00,,,0.00,weatherlink.com 1.10,2013-05-09 13:19:00,
2013-05-09 06:34:00,51.1,49.0,30.18,NE,51,0.0,3.0,91,0.00,,,0.00,weatherlink.com 1.10,2013-05-09 13:34:00,
2013-05-09 06:49:00,51.2,49.0,30.18,East,88,0.0,0.0,91,0.00,,,0.00,weatherlink.com 1.10,2013-05-09 13:49:00,
2013-05-09 07:04:00,51.4,49.0,30.18,East,91,0.0,0.0,91,0.00,,,0.00,weatherlink.com 1.10,2013-05-09 14:04:00,
2013-05-09 07:19:00,51.3,49.0,30.18,East,81,0.0,2.0,91,0.00,,,0.00,weatherlink.com 1.10,2013-05-09 14:19:00,
2013-05-09 07:34:00,51.6,49.0,30.19,East,82,0.0,1.0,91,0.00,,,0.00,weatherlink.com 1.10,2013-05-09 14:34:00,
2013-05-09 07:49:00,52.0,50.0,30.19,East,100,0.0,1.0,91,0.00,,,0.00,weatherlink.com 1.10,2013-05-09 14:49:00,
2013-05-09 08:04:00,52.1,50.0,30.19,ESE,112,1.0,2.0,91,0.00,,,0.00,weatherlink.com 1.10,2013-05-09 15:04:00,
2013-05-09 08:19:00,52.3,50.0,30.19,SE,128,0.0,1.0,91,0.00,,,0.00,weatherlink.com 1.10,2013-05-09 15:19:00,
2013-05-09 08:34:00,52.7,50.0,30.19,SE,130,0.0,0.0,91,0.00,,,0.00,weatherlink.com 1.10,2013-05-09 15:34:00,
2013-05-09 08:49:00,52.6,50.0,30.20,West,272,1.0,2.0,90,0.00,,,0.00,weatherlink.com 1.10,2013-05-09 15:49:00,
2013-05-09 09:04:00,52.8,50.0,30.20,NE,45,0.0,1.0,91,0.00,,,0.00,weatherlink.com 1.10,2013-05-09 16:04:00,
2013-05-09 09:19:00,53.0,50.0,30.19,WSW,258,0.0,2.0,90,0.00,,,0.00,weatherlink.com 1.10,2013-05-09 16:19:00,
2013-05-09 09:34:00,53.1,50.0,30.19,West,264,1.0,2.0,90,0.00,,,0.00,weatherlink.com 1.10,2013-05-09 16:34:00,
2013-05-09 09:49:00,53.8,51.0,30.19,West,270,0.0,1.0,90,0.00,,,0.00,weatherlink.com 1.10,2013-05-09 16:49:00,
2013-05-09 10:04:00,53.5,51.0,30.20,West,278,2.0,3.0,90,0.00,,,0.00,weatherlink.com 1.10,2013-05-09 17:04:00,
2013-05-09 10:19:00,53.4,50.0,30.19,West,273,2.0,5.0,89,0.00,,,0.00,weatherlink.com 1.10,2013-05-09 17:19:00,
2013-05-09 10:34:00,54.5,51.0,30.19,West,271,1.0,2.0,88,0.00,,,0.00,weatherlink.com 1.10,2013-05-09 17:34:00,
2013-05-09 10:50:00,56.6,52.0,30.18,West,278,1.0,3.0,85,0.00,,,0.00,weatherlink.com 1.10,2013-05-09 17:50:00,
2013-05-09 11:04:00,57.7,52.0,30.19,ENE,66,1.0,5.0,82,0.00,,,0.00,weatherlink.com 1.10,2013-05-09 18:04:00,
2013-05-09 11:19:00,57.7,52.0,30.19,West,271,2.0,5.0,81,0.00,,,0.00,weatherlink.com 1.10,2013-05-09 18:19:00,
2013-05-09 11:34:00,57.5,52.0,30.19,WSW,255,1.0,4.0,81,0.00,,,0.00,weatherlink.com 1.10,2013-05-09 18:34:00,
2013-05-09 11:49:00,56.1,52.0,30.19,WNW,298,0.0,7.0,85,0.00,,,0.00,weatherlink.com 1.10,2013-05-09 18:49:00,
2013-05-09 12:04:00,56.3,51.0,30.20,West,281,3.0,6.0,83,0.00,,,0.00,weatherlink.com 1.10,2013-05-09 19:04:00,
2013-05-09 12:19:00,56.6,51.0,30.20,SW,224,2.0,5.0,82,0.00,,,0.00,weatherlink.com 1.10,2013-05-09 19:19:00,
2013-05-09 12:34:00,57.2,52.0,30.20,West,278,2.0,7.0,82,0.00,,,0.00,weatherlink.com 1.10,2013-05-09 19:34:00,
2013-05-09 12:49:00,58.3,53.0,30.20,SW,214,1.0,8.0,81,0.00,,,0.00,weatherlink.com 1.10,2013-05-09 19:49:00,
2013-05-09 13:20:00,58.8,53.0,30.19,NW,305,2.0,6.0,80,0.00,,,0.00,weatherlink.com 1.10,2013-05-09 20:20:00,
2013-05-09 13:35:00,58.5,52.0,30.19,West,267,2.0,7.0,80,0.00,,,0.00,weatherlink.com 1.10,2013-05-09 20:35:00,
2013-05-09 13:50:00,59.2,53.0,30.19,NW,309,3.0,7.0,79,0.00,,,0.00,weatherlink.com 1.10,2013-05-09 20:50:00,
2013-05-09 14:05:00,58.3,52.0,30.19,NE,54,1.0,7.0,79,0.00,,,0.00,weatherlink.com 1.10,2013-05-09 21:05:00,
2013-05-09 14:20:00,59.7,53.0,30.19,NE,53,1.0,6.0,79,0.00,,,0.00,weatherlink.com 1.10,2013-05-09 21:20:00,
2013-05-09 14:35:00,59.3,52.0,30.18,NW,309,4.0,7.0,78,0.00,,,0.00,weatherlink.com 1.10,2013-05-09 21:35:00,
2013-05-09 14:50:00,58.7,52.0,30.18,NNE,23,1.0,6.0,78,0.00,,,0.00,weatherlink.com 1.10,2013-05-09 21:50:00,
2013-05-09 15:05:00,57.7,52.0,30.18,WNW,284,3.0,7.0,80,0.00,,,0.00,weatherlink.com 1.10,2013-05-09 22:05:00,
2013-05-09 15:20:00,58.1,52.0,30.17,NE,44,1.0,7.0,81,0.00,,,0.00,weatherlink.com 1.10,2013-05-09 22:20:00,
2013-05-09 15:35:00,59.4,53.0,30.16,NW,316,3.0,8.0,78,0.00,,,0.00,weatherlink.com 1.10,2013-05-09 22:35:00,
2013-05-09 15:50:00,59.1,52.0,30.16,West,263,1.0,7.0,77,0.00,,,0.00,weatherlink.com 1.10,2013-05-09 22:50:00,
2013-05-09 16:05:00,58.9,52.0,30.15,WNW,290,4.0,9.0,77,0.00,,,0.00,weatherlink.com 1.10,2013-05-09 23:05:00,
2013-05-09 16:20:00,59.0,53.0,30.15,WNW,285,3.0,6.0,80,0.00,,,0.00,weatherlink.com 1.10,2013-05-09 23:20:00,
2013-05-09 16:35:00,59.4,52.0,30.15,NW,315,3.0,7.0,77,0.00,,,0.00,weatherlink.com 1.10,2013-05-09 23:35:00,
2013-05-09 16:50:00,59.0,53.0,30.15,NW,304,1.0,9.0,79,0.00,,,0.00,weatherlink.com 1.10,2013-05-09 23:50:00,
2013-05-09 17:05:00,58.2,52.0,30.14,North,353,2.0,9.0,79,0.00,,,0.00,weatherlink.com 1.10,2013-05-10 00:05:00,
2013-05-09 17:20:00,58.4,52.0,30.13,ESE,123,1.0,6.0,80,0.00,,,0.00,weatherlink.com 1.10,2013-05-10 00:20:00,
2013-05-09 17:35:00,58.8,52.0,30.13,NW,313,2.0,6.0,79,0.00,,,0.00,weatherlink.com 1.10,2013-05-10 00:35:00,
2013-05-09 17:50:00,59.4,53.0,30.12,WNW,298,3.0,5.0,79,0.00,,,0.00,weatherlink.com 1.10,2013-05-10 00:50:00,
2013-05-09 18:05:00,58.0,52.0,30.12,East,97,1.0,7.0,80,0.00,,,0.00,weatherlink.com 1.10,2013-05-10 01:05:00,
2013-05-09 18:20:00,58.1,53.0,30.12,West,274,3.0,5.0,82,0.00,,,0.00,weatherlink.com 1.10,2013-05-10 01:20:00,
2013-05-09 18:35:00,57.9,52.0,30.12,WNW,294,1.0,5.0,81,0.00,,,0.00,weatherlink.com 1.10,2013-05-10 01:35:00,
2013-05-09 18:50:00,57.4,52.0,30.12,NNW,341,1.0,7.0,82,0.00,,,0.00,weatherlink.com 1.10,2013-05-10 01:50:00,
2013-05-09 19:05:00,56.3,51.0,30.12,NW,307,5.0,5.0,83,0.00,,,0.00,weatherlink.com 1.10,2013-05-10 02:05:00,
2013-05-09 19:20:00,55.4,51.0,30.12,West,278,0.0,5.0,85,0.00,,,0.00,weatherlink.com 1.10,2013-05-10 02:20:00,
2013-05-09 19:35:00,54.3,51.0,30.12,NNE,27,0.0,6.0,87,0.00,,,0.00,weatherlink.com 1.10,2013-05-10 02:35:00,
2013-05-09 19:50:00,53.4,50.0,30.13,SSW,209,1.0,6.0,89,0.00,,,0.00,weatherlink.com 1.10,2013-05-10 02:50:00,
2013-05-09 20:05:00,52.8,50.0,30.13,WNW,299,1.0,6.0,90,0.00,,,0.00,weatherlink.com 1.10,2013-05-10 03:05:00,
2013-05-09 20:20:00,52.6,50.0,30.14,West,264,0.0,2.0,90,0.00,,,0.00,weatherlink.com 1.10,2013-05-10 03:20:00,
2013-05-09 20:35:00,52.2,50.0,30.14,NNE,15,1.0,4.0,91,0.00,,,0.00,weatherlink.com 1.10,2013-05-10 03:35:00,
2013-05-09 20:50:00,51.8,49.0,30.14,NNW,328,1.0,6.0,91,0.00,,,0.00,weatherlink.com 1.10,2013-05-10 03:50:00,
2013-05-09 21:05:00,51.4,49.0,30.14,NNE,27,0.0,4.0,91,0.00,,,0.00,weatherlink.com 1.10,2013-05-10 04:05:00,
2013-05-09 21:20:00,51.2,49.0,30.14,West,260,0.0,1.0,92,0.00,,,0.00,weatherlink.com 1.10,2013-05-10 04:20:00,
2013-05-09 21:35:00,51.0,49.0,30.14,WNW,284,0.0,1.0,92,0.00,,,0.00,weatherlink.com 1.10,2013-05-10 04:35:00,
2013-05-09 21:50:00,50.5,48.0,30.14,WNW,284,0.0,0.0,92,0.00,,,0.00,weatherlink.com 1.10,2013-05-10 04:50:00,
2013-05-09 22:05:00,50.3,48.0,30.14,WNW,284,0.0,0.0,92,0.00,,,0.00,weatherlink.com 1.10,2013-05-10 05:05:00,
2013-05-09 22:20:00,50.0,48.0,30.14,NNE,15,0.0,1.0,92,0.00,,,0.00,weatherlink.com 1.10,2013-05-10 05:20:00,
2013-05-09 22:35:00,49.9,48.0,30.14,NNE,15,0.0,0.0,93,0.00,,,0.00,weatherlink.com 1.10,2013-05-10 05:35:00,
2013-05-09 22:50:00,50.3,48.0,30.14,ESE,122,0.0,0.0,93,0.00,,,0.00,weatherlink.com 1.10,2013-05-10 05:50:00,
2013-05-09 23:05:00,49.7,48.0,30.14,ESE,123,0.0,0.0,93,0.00,,,0.00,weatherlink.com 1.10,2013-05-10 06:05:00,
2013-05-09 23:20:00,49.3,47.0,30.14,ESE,122,0.0,0.0,93,0.00,,,0.00,weatherlink.com 1.10,2013-05-10 06:20:00,
2013-05-09 23:35:00,49.3,47.0,30.14,SSE,156,0.0,0.0,93,0.00,,,0.00,weatherlink.com 1.10,2013-05-10 06:35:00,
2013-05-09 23:50:00,49.3,47.0,30.15,SSE,163,0.0,0.0,93,0.00,,,0.00,weatherlink.com 1.10,2013-05-10 06:50:00,